Lorraine L — WDB8580 — position and weather

sailwx.info

Track history (hours):
 
Tides and Currents Weather Stations Pressure Air Temp Water Temp Dewpoint Dewpoint Depression Visibility Wind Speed Wind Dir Waves Ship Positions

Lorraine L

Owner: Highland Towing LLC, Metairie, LA. More information available from US FCC via Universal Licensing System and Coast Guard Vessel Documentation Center.

Last reported at 2016-Aug-30 16:28 UTC. Time now 2016-Aug-30 20:54 UTC.
Position N 29°56' W 093°03'.

Length 19 m; draft 2.4 m.

Type: Towing. MMSI: 366961130.

Date/timePositionNaut miles runAvg speedWind from/ knotsBaromVisibWave heightAir tempDewpointWater temp
2016-Aug-30 16:28N 29°56' W 093°03'4 3.8
2016-Aug-30 15:33N 29°56' W 093°07'4 3.9
2016-Aug-30 14:33N 29°58' W 093°11'4 4.1
2016-Aug-30 13:34N 30°01' W 093°14'4 3.5
2016-Aug-30 12:33N 30°04' W 093°16'3 1.4
2016-Aug-30 10:27N 30°06' W 093°18'0 0.0
2016-Aug-30 09:27N 30°06' W 093°18'0 0.0
2016-Aug-30 08:18N 30°06' W 093°18'0 0.0
2016-Aug-30 07:33N 30°06' W 093°18'0 0.0
2016-Aug-30 06:33N 30°06' W 093°18'0 0.0
2016-Aug-30 05:30N 30°06' W 093°18'0 0.0
2016-Aug-30 04:30N 30°06' W 093°18'1 0.5
2016-Aug-30 03:09N 30°06' W 093°19'2 3.0
2016-Aug-30 02:33N 30°07' W 093°20'4 3.5
2016-Aug-30 01:31N 30°11' W 093°19'0 0.0
2016-Aug-30 00:31N 30°11' W 093°19'0 0.0
2016-Aug-29 23:31N 30°11' W 093°19'0 0.0
2016-Aug-29 22:31N 30°11' W 093°19'0 0.0
2016-Aug-29 21:31N 30°11' W 093°19'0 0.0
2016-Aug-29 20:28N 30°11' W 093°19'0 0.0
2016-Aug-29 19:31N 30°11' W 093°19'0 0.0
2016-Aug-29 18:31N 30°11' W 093°19'0 0.0
2016-Aug-29 17:31N 30°11' W 093°19'0 0.0
2016-Aug-29 16:31N 30°11' W 093°19'0 0.0
2016-Aug-29 15:31N 30°11' W 093°19'2 2.5
2016-Aug-29 14:33N 30°09' W 093°20'3 2.8
2016-Aug-29 13:32N 30°06' W 093°18'0 0.0
2016-Aug-29 12:32N 30°06' W 093°18'0 0.0
2016-Aug-29 11:33N 30°06' W 093°18'0 0.0
2016-Aug-29 10:33N 30°06' W 093°18'0 0.0
2016-Aug-29 09:33N 30°06' W 093°18'0 0.0
2016-Aug-29 08:33N 30°06' W 093°18'0 0.0
2016-Aug-29 07:33N 30°06' W 093°18'0 0.0
2016-Aug-29 06:33N 30°06' W 093°18'0 0.0
2016-Aug-29 05:33N 30°06' W 093°18'0 0.0
2016-Aug-29 04:33N 30°06' W 093°18'0 0.0
2016-Aug-29 03:33N 30°06' W 093°18'0 0.0
2016-Aug-29 02:33N 30°06' W 093°18'0 0.0
2016-Aug-29 01:33N 30°06' W 093°18'0 0.0
2016-Aug-29 00:33N 30°06' W 093°18'0 0.0
2016-Aug-28 23:33N 30°06' W 093°18'0 0.0
2016-Aug-28 22:33N 30°06' W 093°18'0 0.0
2016-Aug-28 21:33N 30°06' W 093°18'0 0.0
2016-Aug-28 20:33N 30°06' W 093°18'0 0.0
2016-Aug-28 19:33N 30°06' W 093°18'0 0.0
2016-Aug-28 18:33N 30°06' W 093°18'0 0.0
2016-Aug-28 17:33N 30°06' W 093°18'0 0.0
2016-Aug-28 16:33N 30°06' W 093°18'0 0.0
2016-Aug-28 15:33N 30°06' W 093°18'0 0.0
2016-Aug-28 14:33N 30°06' W 093°18'0 0.0
2016-Aug-28 13:30N 30°06' W 093°18'0 0.0
2016-Aug-28 12:33N 30°06' W 093°18'0 0.0
2016-Aug-28 11:33N 30°06' W 093°18'0 0.0
2016-Aug-28 10:33N 30°06' W 093°18'0 0.0
2016-Aug-28 09:27N 30°06' W 093°18'0 0.0
2016-Aug-28 08:30N 30°06' W 093°18'0 0.0
2016-Aug-28 07:24N 30°06' W 093°18'0 0.0
2016-Aug-28 06:33N 30°06' W 093°18'0 0.0
2016-Aug-28 05:33N 30°06' W 093°18'0 0.0
2016-Aug-28 04:33N 30°06' W 093°18'0 0.0
2016-Aug-28 03:33N 30°06' W 093°18'0 0.0
2016-Aug-28 02:33N 30°06' W 093°18'0 0.0
2016-Aug-28 01:33N 30°06' W 093°18'0 0.0
2016-Aug-28 00:33N 30°06' W 093°18'0 0.0
2016-Aug-27 23:33N 30°06' W 093°18'0 0.0
2016-Aug-27 22:33N 30°06' W 093°18'0 0.1
2016-Aug-27 21:33N 30°06' W 093°18'0 0.0
2016-Aug-27 20:33N 30°06' W 093°18'0 0.0
2016-Aug-27 19:33N 30°06' W 093°18'0 0.0
2016-Aug-27 18:33N 30°06' W 093°18'0 0.0
2016-Aug-27 17:31N 30°06' W 093°18'0 0.0
2016-Aug-27 16:33N 30°06' W 093°18'0 0.0
2016-Aug-27 15:33N 30°06' W 093°18'0 0.0
2016-Aug-27 14:33N 30°06' W 093°18'0 0.0
2016-Aug-27 13:34N 30°06' W 093°18'4 3.9
2016-Aug-27 12:32N 30°04' W 093°21'4 4.2
2016-Aug-27 11:33N 30°04' W 093°26'5 4.8
2016-Aug-27 10:33N 30°04' W 093°32'5 4.8
2016-Aug-27 09:32N 30°03' W 093°37'5 5.3
2016-Aug-27 08:33N 30°03' W 093°43'3 3.3
2016-Aug-27 07:33N 30°01' W 093°46'5 5.1
2016-Aug-27 06:33N 29°58' W 093°51'9 4.6
2016-Aug-27 04:31N 29°51' W 093°57'11 0.5
2016-Aug-26 07:34N 29°59' W 093°50'5 4.8
2016-Aug-26 06:28N 30°01' W 093°44'9 4.5
2016-Aug-26 04:33N 30°04' W 093°35'5 4.9
2016-Aug-26 03:33N 30°04' W 093°29'5 4.9
2016-Aug-26 02:34N 30°04' W 093°23'3 3.4
2016-Aug-26 01:34N 30°05' W 093°20'4 3.6
2016-Aug-26 00:33N 30°04' W 093°16'5 5.2
2016-Aug-25 23:34N 29°59' W 093°13'5 5.3
2016-Aug-25 22:33N 29°56' W 093°08'6 5.9
2016-Aug-25 21:33N 29°56' W 093°01'6 5.5
2016-Aug-25 20:33N 29°56' W 092°55'2 0.1
2016-Aug-25 04:11N 29°57' W 092°52'2 3.4
2016-Aug-25 03:33N 29°56' W 092°55'3 3.2
2016-Aug-25 02:29N 29°56' W 092°58'3 3.4
2016-Aug-25 01:33N 29°56' W 093°02'3 3.3
2016-Aug-25 00:33N 29°56' W 093°06'3 3.4
2016-Aug-24 23:33N 29°56' W 093°10'4 3.5
2016-Aug-24 22:33N 29°59' W 093°12'3 3.1
2016-Aug-24 21:33N 30°01' W 093°14'3 2.8
2016-Aug-24 20:33N 30°04' W 093°16'2 2.4
2016-Aug-24 19:33N 30°05' W 093°18'0 0.4
2016-Aug-24 18:28N 30°06' W 093°18'1 0.5
2016-Aug-24 17:28N 30°06' W 093°18'0 0.1
2016-Aug-24 15:30N 30°06' W 093°18'0 0.0
2016-Aug-24 14:30N 30°06' W 093°18'0 0.0
2016-Aug-24 13:30N 30°06' W 093°18'0 0.0
2016-Aug-24 12:24N 30°06' W 093°18'0 0.0
2016-Aug-24 11:33N 30°06' W 093°18'0 0.0
2016-Aug-24 10:33N 30°06' W 093°18'0 0.0
2016-Aug-24 09:33N 30°06' W 093°18'0 0.0
2016-Aug-24 08:24N 30°06' W 093°18'0 0.0
2016-Aug-24 01:24N 30°06' W 093°18'0 0.0
2016-Aug-24 00:24N 30°06' W 093°18'0 0.0
2016-Aug-23 23:33N 30°06' W 093°18'0 0.0
2016-Aug-23 22:30N 30°06' W 093°18'0 0.0
2016-Aug-23 21:33N 30°06' W 093°18'0 0.0
2016-Aug-23 20:30N 30°06' W 093°18'0 0.0
2016-Aug-23 19:27N 30°06' W 093°18'0 0.0
2016-Aug-23 18:33N 30°06' W 093°18'0 0.0
2016-Aug-23 17:27N 30°06' W 093°18'0 0.0
2016-Aug-23 15:27N 30°06' W 093°18'0 0.2
2016-Aug-23 14:27N 30°06' W 093°18'0 0.2
2016-Aug-23 13:32N 30°06' W 093°18'0 0.0
2016-Aug-23 12:17N 30°06' W 093°18'0 0.0
2016-Aug-23 11:32N 30°06' W 093°18'0 0.0
2016-Aug-23 10:32N 30°06' W 093°18'2 1.8
2016-Aug-23 09:33N 30°07' W 093°20'3 3.2
2016-Aug-23 08:31N 30°10' W 093°19'0 0.0
2016-Aug-23 07:31N 30°11' W 093°19'0 0.0
2016-Aug-23 06:31N 30°11' W 093°19'0 0.0
2016-Aug-23 05:31N 30°11' W 093°19'0 0.0
2016-Aug-23 04:31N 30°11' W 093°19'0 0.0
2016-Aug-23 03:28N 30°11' W 093°19'0 0.0
2016-Aug-23 02:31N 30°11' W 093°19'0 0.0
2016-Aug-23 01:31N 30°11' W 093°19'0 0.0
2016-Aug-23 00:31N 30°11' W 093°19'0 0.0
2016-Aug-22 23:31N 30°11' W 093°19'0 0.0
2016-Aug-22 22:31N 30°10' W 093°19'1 0.7
2016-Aug-22 21:32N 30°11' W 093°19'0 0.0
2016-Aug-22 20:32N 30°11' W 093°19'0 0.1
2016-Aug-22 19:33N 30°11' W 093°19'4 4.1
2016-Aug-22 18:33N 30°07' W 093°20'2 1.8
2016-Aug-22 17:31N 30°06' W 093°18'0 0.0
2016-Aug-22 16:31N 30°06' W 093°18'0 0.0
2016-Aug-22 15:32N 30°06' W 093°18'0 0.0
2016-Aug-22 14:32N 30°06' W 093°18'0 0.1
2016-Aug-22 13:32N 30°07' W 093°18'0 0.1
2016-Aug-22 12:32N 30°06' W 093°18'0 0.0
2016-Aug-22 11:32N 30°06' W 093°18'0 0.0
2016-Aug-22 10:32N 30°06' W 093°18'0 0.0
2016-Aug-22 09:32N 30°06' W 093°18'0 0.0
2016-Aug-22 08:32N 30°06' W 093°18'0 0.0
2016-Aug-22 07:32N 30°06' W 093°18'0 0.0
2016-Aug-22 06:32N 30°06' W 093°18'0 0.0
2016-Aug-22 05:32N 30°06' W 093°18'0 0.0
2016-Aug-22 04:32N 30°06' W 093°18'0 0.0
2016-Aug-22 03:32N 30°06' W 093°18'0 0.0
2016-Aug-22 02:32N 30°06' W 093°18'0 0.0
2016-Aug-22 01:32N 30°06' W 093°18'0 0.0
2016-Aug-22 00:32N 30°06' W 093°18'0 0.0
2016-Aug-21 23:32N 30°06' W 093°18'0 0.0
2016-Aug-21 22:31N 30°06' W 093°18'0 0.0
2016-Aug-21 21:31N 30°06' W 093°18'0 0.0
2016-Aug-21 20:31N 30°06' W 093°18'0 0.0
2016-Aug-21 19:31N 30°06' W 093°18'0 0.0
2016-Aug-21 18:31N 30°06' W 093°18'0 0.0
2016-Aug-21 17:31N 30°06' W 093°18'0 0.0
2016-Aug-21 16:31N 30°06' W 093°18'0 0.0
2016-Aug-21 15:31N 30°06' W 093°18'0 0.0
2016-Aug-21 14:31N 30°06' W 093°18'0 0.0
2016-Aug-21 13:31N 30°06' W 093°18'0 0.0
2016-Aug-21 12:31N 30°06' W 093°18'0 0.0
2016-Aug-21 11:31N 30°06' W 093°18'0 0.0
2016-Aug-21 10:31N 30°06' W 093°18'0 0.0
2016-Aug-21 09:31N 30°06' W 093°18'0 0.0
2016-Aug-21 08:31N 30°06' W 093°18'0 0.0
2016-Aug-21 07:31N 30°06' W 093°18'0 0.0
2016-Aug-21 06:31N 30°06' W 093°18'0 0.0
2016-Aug-21 05:31N 30°06' W 093°18'0 0.0
2016-Aug-21 04:31N 30°06' W 093°18'0 0.0
2016-Aug-21 03:31N 30°06' W 093°18'0 0.0
2016-Aug-21 02:31N 30°06' W 093°18'0 0.0
2016-Aug-21 01:31N 30°06' W 093°18'0 0.0
2016-Aug-21 00:31N 30°06' W 093°18'0 0.0
2016-Aug-20 23:31N 30°06' W 093°18'0 0.0
2016-Aug-20 22:31N 30°06' W 093°18'0 0.0
2016-Aug-20 21:31N 30°06' W 093°18'0 0.0
2016-Aug-20 20:31N 30°06' W 093°18'0 0.2
2016-Aug-20 19:32N 30°06' W 093°18'0 0.0
2016-Aug-20 18:29N 30°06' W 093°18'0 0.2
2016-Aug-20 17:32N 30°06' W 093°18'0 0.0
2016-Aug-20 16:32N 30°06' W 093°18'  
Track history (hours):
 
Tides and Currents Weather Stations Pressure Air Temp Water Temp Dewpoint Dewpoint Depression Visibility Wind Speed Wind Dir Waves Ship Positions

Lorraine L

Owner: Highland Towing LLC, Metairie, LA. More information available from US FCC via Universal Licensing System and Coast Guard Vessel Documentation Center.

Last reported at 2016-Aug-30 16:28 UTC. Time now 2016-Aug-30 20:54 UTC.
Position N 29°56' W 093°03'.

Length 19 m; draft 2.4 m.

Type: Towing. MMSI: 366961130.

Date/timePositionNaut miles runAvg speedWind from/ knotsBaromVisibWave heightAir tempDewpointWater temp
2016-Aug-30 16:28N 29°56' W 093°03'4 3.8
2016-Aug-30 15:33N 29°56' W 093°07'4 3.9
2016-Aug-30 14:33N 29°58' W 093°11'4 4.1
2016-Aug-30 13:34N 30°01' W 093°14'4 3.5
2016-Aug-30 12:33N 30°04' W 093°16'3 1.4
2016-Aug-30 10:27N 30°06' W 093°18'0 0.0
2016-Aug-30 09:27N 30°06' W 093°18'0 0.0
2016-Aug-30 08:18N 30°06' W 093°18'0 0.0
2016-Aug-30 07:33N 30°06' W 093°18'0 0.0
2016-Aug-30 06:33N 30°06' W 093°18'0 0.0
2016-Aug-30 05:30N 30°06' W 093°18'0 0.0
2016-Aug-30 04:30N 30°06' W 093°18'1 0.5
2016-Aug-30 03:09N 30°06' W 093°19'2 3.0
2016-Aug-30 02:33N 30°07' W 093°20'4 3.5
2016-Aug-30 01:31N 30°11' W 093°19'0 0.0
2016-Aug-30 00:31N 30°11' W 093°19'0 0.0
2016-Aug-29 23:31N 30°11' W 093°19'0 0.0
2016-Aug-29 22:31N 30°11' W 093°19'0 0.0
2016-Aug-29 21:31N 30°11' W 093°19'0 0.0
2016-Aug-29 20:28N 30°11' W 093°19'0 0.0
2016-Aug-29 19:31N 30°11' W 093°19'0 0.0
2016-Aug-29 18:31N 30°11' W 093°19'0 0.0
2016-Aug-29 17:31N 30°11' W 093°19'0 0.0
2016-Aug-29 16:31N 30°11' W 093°19'0 0.0
2016-Aug-29 15:31N 30°11' W 093°19'2 2.5
2016-Aug-29 14:33N 30°09' W 093°20'3 2.8
2016-Aug-29 13:32N 30°06' W 093°18'0 0.0
2016-Aug-29 12:32N 30°06' W 093°18'0 0.0
2016-Aug-29 11:33N 30°06' W 093°18'0 0.0
2016-Aug-29 10:33N 30°06' W 093°18'0 0.0
2016-Aug-29 09:33N 30°06' W 093°18'0 0.0
2016-Aug-29 08:33N 30°06' W 093°18'0 0.0
2016-Aug-29 07:33N 30°06' W 093°18'0 0.0
2016-Aug-29 06:33N 30°06' W 093°18'0 0.0
2016-Aug-29 05:33N 30°06' W 093°18'0 0.0
2016-Aug-29 04:33N 30°06' W 093°18'0 0.0
2016-Aug-29 03:33N 30°06' W 093°18'0 0.0
2016-Aug-29 02:33N 30°06' W 093°18'0 0.0
2016-Aug-29 01:33N 30°06' W 093°18'0 0.0
2016-Aug-29 00:33N 30°06' W 093°18'0 0.0
2016-Aug-28 23:33N 30°06' W 093°18'0 0.0
2016-Aug-28 22:33N 30°06' W 093°18'0 0.0
2016-Aug-28 21:33N 30°06' W 093°18'0 0.0
2016-Aug-28 20:33N 30°06' W 093°18'0 0.0
2016-Aug-28 19:33N 30°06' W 093°18'0 0.0
2016-Aug-28 18:33N 30°06' W 093°18'0 0.0
2016-Aug-28 17:33N 30°06' W 093°18'0 0.0
2016-Aug-28 16:33N 30°06' W 093°18'0 0.0
2016-Aug-28 15:33N 30°06' W 093°18'0 0.0
2016-Aug-28 14:33N 30°06' W 093°18'0 0.0
2016-Aug-28 13:30N 30°06' W 093°18'0 0.0
2016-Aug-28 12:33N 30°06' W 093°18'0 0.0
2016-Aug-28 11:33N 30°06' W 093°18'0 0.0
2016-Aug-28 10:33N 30°06' W 093°18'0 0.0
2016-Aug-28 09:27N 30°06' W 093°18'0 0.0
2016-Aug-28 08:30N 30°06' W 093°18'0 0.0
2016-Aug-28 07:24N 30°06' W 093°18'0 0.0
2016-Aug-28 06:33N 30°06' W 093°18'0 0.0
2016-Aug-28 05:33N 30°06' W 093°18'0 0.0
2016-Aug-28 04:33N 30°06' W 093°18'0 0.0
2016-Aug-28 03:33N 30°06' W 093°18'0 0.0
2016-Aug-28 02:33N 30°06' W 093°18'0 0.0
2016-Aug-28 01:33N 30°06' W 093°18'0 0.0
2016-Aug-28 00:33N 30°06' W 093°18'0 0.0
2016-Aug-27 23:33N 30°06' W 093°18'0 0.0
2016-Aug-27 22:33N 30°06' W 093°18'0 0.1
2016-Aug-27 21:33N 30°06' W 093°18'0 0.0
2016-Aug-27 20:33N 30°06' W 093°18'0 0.0
2016-Aug-27 19:33N 30°06' W 093°18'0 0.0
2016-Aug-27 18:33N 30°06' W 093°18'0 0.0
2016-Aug-27 17:31N 30°06' W 093°18'0 0.0
2016-Aug-27 16:33N 30°06' W 093°18'0 0.0
2016-Aug-27 15:33N 30°06' W 093°18'0 0.0
2016-Aug-27 14:33N 30°06' W 093°18'0 0.0
2016-Aug-27 13:34N 30°06' W 093°18'4 3.9
2016-Aug-27 12:32N 30°04' W 093°21'4 4.2
2016-Aug-27 11:33N 30°04' W 093°26'5 4.8
2016-Aug-27 10:33N 30°04' W 093°32'5 4.8
2016-Aug-27 09:32N 30°03' W 093°37'5 5.3
2016-Aug-27 08:33N 30°03' W 093°43'3 3.3
2016-Aug-27 07:33N 30°01' W 093°46'5 5.1
2016-Aug-27 06:33N 29°58' W 093°51'9 4.6
2016-Aug-27 04:31N 29°51' W 093°57'11 0.5
2016-Aug-26 07:34N 29°59' W 093°50'5 4.8
2016-Aug-26 06:28N 30°01' W 093°44'9 4.5
2016-Aug-26 04:33N 30°04' W 093°35'5 4.9
2016-Aug-26 03:33N 30°04' W 093°29'5 4.9
2016-Aug-26 02:34N 30°04' W 093°23'3 3.4
2016-Aug-26 01:34N 30°05' W 093°20'4 3.6
2016-Aug-26 00:33N 30°04' W 093°16'5 5.2
2016-Aug-25 23:34N 29°59' W 093°13'5 5.3
2016-Aug-25 22:33N 29°56' W 093°08'6 5.9
2016-Aug-25 21:33N 29°56' W 093°01'6 5.5
2016-Aug-25 20:33N 29°56' W 092°55'2 0.1
2016-Aug-25 04:11N 29°57' W 092°52'2 3.4
2016-Aug-25 03:33N 29°56' W 092°55'3 3.2
2016-Aug-25 02:29N 29°56' W 092°58'3 3.4
2016-Aug-25 01:33N 29°56' W 093°02'3 3.3
2016-Aug-25 00:33N 29°56' W 093°06'3 3.4
2016-Aug-24 23:33N 29°56' W 093°10'4 3.5
2016-Aug-24 22:33N 29°59' W 093°12'3 3.1
2016-Aug-24 21:33N 30°01' W 093°14'3 2.8
2016-Aug-24 20:33N 30°04' W 093°16'2 2.4
2016-Aug-24 19:33N 30°05' W 093°18'0 0.4
2016-Aug-24 18:28N 30°06' W 093°18'1 0.5
2016-Aug-24 17:28N 30°06' W 093°18'0 0.1
2016-Aug-24 15:30N 30°06' W 093°18'0 0.0
2016-Aug-24 14:30N 30°06' W 093°18'0 0.0
2016-Aug-24 13:30N 30°06' W 093°18'0 0.0
2016-Aug-24 12:24N 30°06' W 093°18'0 0.0
2016-Aug-24 11:33N 30°06' W 093°18'0 0.0
2016-Aug-24 10:33N 30°06' W 093°18'0 0.0
2016-Aug-24 09:33N 30°06' W 093°18'0 0.0
2016-Aug-24 08:24N 30°06' W 093°18'0 0.0
2016-Aug-24 01:24N 30°06' W 093°18'0 0.0
2016-Aug-24 00:24N 30°06' W 093°18'0 0.0
2016-Aug-23 23:33N 30°06' W 093°18'0 0.0
2016-Aug-23 22:30N 30°06' W 093°18'0 0.0
2016-Aug-23 21:33N 30°06' W 093°18'0 0.0
2016-Aug-23 20:30N 30°06' W 093°18'0 0.0
2016-Aug-23 19:27N 30°06' W 093°18'0 0.0
2016-Aug-23 18:33N 30°06' W 093°18'0 0.0
2016-Aug-23 17:27N 30°06' W 093°18'0 0.0
2016-Aug-23 15:27N 30°06' W 093°18'0 0.2
2016-Aug-23 14:27N 30°06' W 093°18'0 0.2
2016-Aug-23 13:32N 30°06' W 093°18'0 0.0
2016-Aug-23 12:17N 30°06' W 093°18'0 0.0
2016-Aug-23 11:32N 30°06' W 093°18'0 0.0
2016-Aug-23 10:32N 30°06' W 093°18'2 1.8
2016-Aug-23 09:33N 30°07' W 093°20'3 3.2
2016-Aug-23 08:31N 30°10' W 093°19'0 0.0
2016-Aug-23 07:31N 30°11' W 093°19'0 0.0
2016-Aug-23 06:31N 30°11' W 093°19'0 0.0
2016-Aug-23 05:31N 30°11' W 093°19'0 0.0
2016-Aug-23 04:31N 30°11' W 093°19'0 0.0
2016-Aug-23 03:28N 30°11' W 093°19'0 0.0
2016-Aug-23 02:31N 30°11' W 093°19'0 0.0
2016-Aug-23 01:31N 30°11' W 093°19'0 0.0
2016-Aug-23 00:31N 30°11' W 093°19'0 0.0
2016-Aug-22 23:31N 30°11' W 093°19'0 0.0
2016-Aug-22 22:31N 30°10' W 093°19'1 0.7
2016-Aug-22 21:32N 30°11' W 093°19'0 0.0
2016-Aug-22 20:32N 30°11' W 093°19'0 0.1
2016-Aug-22 19:33N 30°11' W 093°19'4 4.1
2016-Aug-22 18:33N 30°07' W 093°20'2 1.8
2016-Aug-22 17:31N 30°06' W 093°18'0 0.0
2016-Aug-22 16:31N 30°06' W 093°18'0 0.0
2016-Aug-22 15:32N 30°06' W 093°18'0 0.0
2016-Aug-22 14:32N 30°06' W 093°18'0 0.1
2016-Aug-22 13:32N 30°07' W 093°18'0 0.1
2016-Aug-22 12:32N 30°06' W 093°18'0 0.0
2016-Aug-22 11:32N 30°06' W 093°18'0 0.0
2016-Aug-22 10:32N 30°06' W 093°18'0 0.0
2016-Aug-22 09:32N 30°06' W 093°18'0 0.0
2016-Aug-22 08:32N 30°06' W 093°18'0 0.0
2016-Aug-22 07:32N 30°06' W 093°18'0 0.0
2016-Aug-22 06:32N 30°06' W 093°18'0 0.0
2016-Aug-22 05:32N 30°06' W 093°18'0 0.0
2016-Aug-22 04:32N 30°06' W 093°18'0 0.0
2016-Aug-22 03:32N 30°06' W 093°18'0 0.0
2016-Aug-22 02:32N 30°06' W 093°18'0 0.0
2016-Aug-22 01:32N 30°06' W 093°18'0 0.0
2016-Aug-22 00:32N 30°06' W 093°18'0 0.0
2016-Aug-21 23:32N 30°06' W 093°18'0 0.0
2016-Aug-21 22:31N 30°06' W 093°18'0 0.0
2016-Aug-21 21:31N 30°06' W 093°18'0 0.0
2016-Aug-21 20:31N 30°06' W 093°18'0 0.0
2016-Aug-21 19:31N 30°06' W 093°18'0 0.0
2016-Aug-21 18:31N 30°06' W 093°18'0 0.0
2016-Aug-21 17:31N 30°06' W 093°18'0 0.0
2016-Aug-21 16:31N 30°06' W 093°18'0 0.0
2016-Aug-21 15:31N 30°06' W 093°18'0 0.0
2016-Aug-21 14:31N 30°06' W 093°18'0 0.0
2016-Aug-21 13:31N 30°06' W 093°18'0 0.0
2016-Aug-21 12:31N 30°06' W 093°18'0 0.0
2016-Aug-21 11:31N 30°06' W 093°18'0 0.0
2016-Aug-21 10:31N 30°06' W 093°18'0 0.0
2016-Aug-21 09:31N 30°06' W 093°18'0 0.0
2016-Aug-21 08:31N 30°06' W 093°18'0 0.0
2016-Aug-21 07:31N 30°06' W 093°18'0 0.0
2016-Aug-21 06:31N 30°06' W 093°18'0 0.0
2016-Aug-21 05:31N 30°06' W 093°18'0 0.0
2016-Aug-21 04:31N 30°06' W 093°18'0 0.0
2016-Aug-21 03:31N 30°06' W 093°18'0 0.0
2016-Aug-21 02:31N 30°06' W 093°18'0 0.0
2016-Aug-21 01:31N 30°06' W 093°18'0 0.0
2016-Aug-21 00:31N 30°06' W 093°18'0 0.0
2016-Aug-20 23:31N 30°06' W 093°18'0 0.0
2016-Aug-20 22:31N 30°06' W 093°18'0 0.0
2016-Aug-20 21:31N 30°06' W 093°18'0 0.0
2016-Aug-20 20:31N 30°06' W 093°18'0 0.2
2016-Aug-20 19:32N 30°06' W 093°18'0 0.0
2016-Aug-20 18:29N 30°06' W 093°18'0 0.2
2016-Aug-20 17:32N 30°06' W 093°18'0 0.0
2016-Aug-20 16:32N 30°06' W 093°18'  

Dump ship's entire track history